createdAt,value
2018-04-24T00:00:19.366Z,0
2018-04-24T00:00:45.517Z,0
2018-04-24T00:01:11.655Z,0
2018-04-24T00:01:37.795Z,0
2018-04-24T00:02:10.202Z,0
2018-04-24T00:02:36.345Z,0
2018-04-24T00:03:02.480Z,0
2018-04-24T00:03:28.622Z,0
2018-04-24T00:03:54.762Z,0
2018-04-24T00:04:20.904Z,0
2018-04-24T00:04:47.045Z,0
2018-04-24T00:05:13.236Z,0
2018-04-24T00:05:39.396Z,0
2018-04-24T00:06:05.538Z,0
2018-04-24T00:06:31.692Z,0
2018-04-24T00:06:57.849Z,0
2018-04-24T00:07:23.998Z,0
2018-04-24T00:07:50.157Z,0
2018-04-24T00:08:16.320Z,0
2018-04-24T00:08:42.483Z,0
2018-04-24T00:09:08.623Z,0
2018-04-24T00:09:34.758Z,0
2018-04-24T00:10:00.899Z,0
2018-04-24T00:10:27.048Z,0
2018-04-24T00:10:53.187Z,0
2018-04-24T00:11:19.322Z,0
2018-04-24T00:11:45.467Z,0
2018-04-24T00:12:11.610Z,0
2018-04-24T00:12:37.750Z,0
2018-04-24T00:13:03.892Z,0
2018-04-24T00:13:30.032Z,0
2018-04-24T00:13:56.191Z,0
2018-04-24T00:14:22.331Z,0
2018-04-24T00:14:48.467Z,0
2018-04-24T00:15:14.606Z,0
2018-04-24T00:15:40.747Z,0
2018-04-24T00:16:06.888Z,0
2018-04-24T00:16:33.036Z,0
2018-04-24T00:16:59.198Z,0
2018-04-24T00:17:25.361Z,0
2018-04-24T00:17:51.509Z,0
2018-04-24T00:18:17.661Z,0
2018-04-24T00:18:43.782Z,0
2018-04-24T00:19:09.951Z,0
2018-04-24T00:19:36.087Z,0
2018-04-24T00:20:02.232Z,0
2018-04-24T00:20:28.367Z,0
2018-04-24T00:20:54.504Z,0
2018-04-24T00:21:20.645Z,0
2018-04-24T00:21:46.791Z,0
2018-04-24T00:22:12.928Z,0
2018-04-24T00:22:39.067Z,0
2018-04-24T00:23:05.227Z,0
2018-04-24T00:23:31.369Z,0
2018-04-24T00:23:57.560Z,0
2018-04-24T00:24:23.702Z,0
2018-04-24T00:24:49.844Z,0
2018-04-24T00:25:15.990Z,0
2018-04-24T00:25:42.121Z,0
2018-04-24T00:26:08.323Z,0
2018-04-24T00:26:34.437Z,0
2018-04-24T00:27:00.571Z,0
2018-04-24T00:27:26.746Z,0
2018-04-24T00:27:52.916Z,0
2018-04-24T00:28:19.059Z,0
2018-04-24T00:28:45.220Z,0
2018-04-24T00:29:11.404Z,0
2018-04-24T00:29:37.538Z,0
2018-04-24T00:30:03.680Z,0
2018-04-24T00:30:29.824Z,0
2018-04-24T00:30:55.963Z,0
2018-04-24T00:31:22.093Z,0
2018-04-24T00:31:48.231Z,0
2018-04-24T00:32:14.376Z,0
2018-04-24T00:32:40.535Z,0
2018-04-24T00:33:06.669Z,0
2018-04-24T00:33:32.840Z,0
2018-04-24T00:33:58.985Z,0
2018-04-24T00:34:25.155Z,0
2018-04-24T00:34:51.300Z,0
2018-04-24T00:35:17.466Z,0
2018-04-24T00:35:43.614Z,0
2018-04-24T00:36:09.754Z,0
2018-04-24T00:36:35.898Z,0
2018-04-24T00:37:02.034Z,0
2018-04-24T00:37:28.177Z,0
2018-04-24T00:37:54.312Z,0
2018-04-24T00:38:20.450Z,0
2018-04-24T00:38:46.641Z,0
2018-04-24T00:39:12.782Z,0
2018-04-24T00:39:38.926Z,0
2018-04-24T00:40:05.056Z,0
2018-04-24T00:40:31.190Z,0
2018-04-24T00:40:57.335Z,0
2018-04-24T00:41:23.467Z,0
2018-04-24T00:41:49.663Z,0
2018-04-24T00:42:15.831Z,0
2018-04-24T00:42:41.972Z,0
2018-04-24T00:43:08.111Z,0
2018-04-24T00:43:34.257Z,0
2018-04-24T00:44:00.400Z,0
2018-04-24T00:44:26.529Z,0
2018-04-24T00:44:52.691Z,0
2018-04-24T00:45:18.828Z,0
2018-04-24T00:45:44.978Z,0
2018-04-24T00:46:11.105Z,0
2018-04-24T00:46:37.271Z,0
2018-04-24T00:47:03.406Z,0
2018-04-24T00:47:29.544Z,0
2018-04-24T00:47:55.678Z,0
2018-04-24T00:48:21.822Z,0
2018-04-24T00:48:47.960Z,0
2018-04-24T00:49:14.100Z,0
2018-04-24T00:49:40.242Z,0
2018-04-24T00:50:06.387Z,0
2018-04-24T00:50:32.545Z,0
2018-04-24T00:50:58.718Z,0
2018-04-24T00:51:24.856Z,0
2018-04-24T00:51:51.023Z,0
2018-04-24T00:52:17.159Z,0
2018-04-24T00:52:43.300Z,0
2018-04-24T00:53:09.449Z,0
2018-04-24T00:53:35.612Z,0
2018-04-24T00:54:01.772Z,0
2018-04-24T00:54:27.928Z,0
2018-04-24T00:54:54.054Z,0
2018-04-24T00:55:20.187Z,0
2018-04-24T00:55:46.330Z,0
2018-04-24T00:56:12.468Z,0
2018-04-24T00:56:38.633Z,0
2018-04-24T00:57:04.776Z,0
2018-04-24T00:57:30.965Z,0
2018-04-24T00:57:57.104Z,0
2018-04-24T00:58:23.237Z,0
2018-04-24T00:58:49.410Z,0
2018-04-24T00:59:15.546Z,0
2018-04-24T00:59:41.684Z,0
2018-04-24T01:00:07.818Z,0
2018-04-24T01:00:33.955Z,0
2018-04-24T01:01:00.092Z,0
2018-04-24T01:01:26.254Z,0
2018-04-24T01:01:52.419Z,0
2018-04-24T01:02:18.556Z,0
2018-04-24T01:02:44.735Z,0
2018-04-24T01:03:10.863Z,0
2018-04-24T01:03:37.005Z,0
2018-04-24T01:04:03.142Z,0
2018-04-24T01:04:29.274Z,0
2018-04-24T01:04:55.414Z,0
2018-04-24T01:05:21.579Z,0
2018-04-24T01:05:47.712Z,0
2018-04-24T01:06:13.853Z,0
2018-04-24T01:06:40.056Z,0
2018-04-24T01:07:06.226Z,0
2018-04-24T01:07:32.314Z,0
2018-04-24T01:07:58.473Z,0
2018-04-24T01:08:24.610Z,0
2018-04-24T01:08:50.754Z,0
2018-04-24T01:09:16.890Z,0
2018-04-24T01:09:43.028Z,0
2018-04-24T01:10:09.168Z,0
2018-04-24T01:10:35.301Z,0
2018-04-24T01:11:01.441Z,0
2018-04-24T01:11:27.576Z,0
2018-04-24T01:11:53.717Z,0
2018-04-24T01:12:19.849Z,0
2018-04-24T01:12:45.992Z,0
2018-04-24T01:13:12.135Z,0
2018-04-24T01:13:38.271Z,0
2018-04-24T01:14:04.403Z,0
2018-04-24T01:14:30.569Z,0
2018-04-24T01:14:56.712Z,0
2018-04-24T01:15:22.899Z,0
2018-04-24T01:15:49.045Z,0
2018-04-24T01:16:15.177Z,0
2018-04-24T01:16:41.314Z,0
2018-04-24T01:17:07.455Z,0
2018-04-24T01:17:33.601Z,0
2018-04-24T01:17:59.735Z,0
2018-04-24T01:18:25.878Z,0
2018-04-24T01:18:52.016Z,0
2018-04-24T01:19:18.157Z,0
2018-04-24T01:19:44.298Z,0
2018-04-24T01:20:10.459Z,0
2018-04-24T01:20:36.593Z,0
2018-04-24T01:21:02.734Z,0
2018-04-24T01:21:28.878Z,0
2018-04-24T01:21:55.014Z,0
2018-04-24T01:22:21.151Z,0
2018-04-24T01:22:47.289Z,0
2018-04-24T01:23:13.429Z,0
2018-04-24T01:23:39.563Z,0
2018-04-24T01:24:05.703Z,0
2018-04-24T01:24:31.839Z,0
2018-04-24T01:24:57.988Z,0
2018-04-24T01:25:24.134Z,0
2018-04-24T01:25:50.267Z,0
2018-04-24T01:26:16.412Z,0
2018-04-24T01:26:42.549Z,0
2018-04-24T01:27:08.678Z,0
2018-04-24T01:27:34.820Z,0
2018-04-24T01:28:00.971Z,0
2018-04-24T01:28:27.112Z,0
2018-04-24T01:28:53.266Z,0
2018-04-24T01:29:19.408Z,0
2018-04-24T01:29:45.543Z,0
2018-04-24T01:30:11.686Z,0
2018-04-24T01:30:37.832Z,0
2018-04-24T01:31:03.967Z,0
2018-04-24T01:31:30.109Z,0
2018-04-24T01:31:56.243Z,0
2018-04-24T01:32:22.470Z,0
2018-04-24T01:32:48.580Z,0
2018-04-24T01:33:14.737Z,0
2018-04-24T01:33:40.895Z,0
2018-04-24T01:34:07.038Z,0
2018-04-24T01:34:33.200Z,0
2018-04-24T01:34:59.361Z,0
2018-04-24T01:35:25.501Z,0
2018-04-24T01:35:51.634Z,0
2018-04-24T01:36:17.775Z,0
2018-04-24T01:36:43.912Z,0
2018-04-24T01:37:10.052Z,0
2018-04-24T01:37:36.196Z,0
2018-04-24T01:38:02.335Z,0
2018-04-24T01:38:28.475Z,0
2018-04-24T01:38:54.614Z,0
2018-04-24T01:39:20.756Z,0
2018-04-24T01:39:46.914Z,0
2018-04-24T01:40:13.049Z,0
2018-04-24T01:40:39.189Z,0
2018-04-24T01:41:05.327Z,0
2018-04-24T01:41:31.492Z,0
2018-04-24T01:41:57.627Z,0
2018-04-24T01:42:23.768Z,0
2018-04-24T01:42:49.904Z,0
2018-04-24T01:43:16.043Z,0
2018-04-24T01:43:42.180Z,0
2018-04-24T01:44:08.341Z,0
2018-04-24T01:44:34.484Z,0
2018-04-24T01:45:00.626Z,0
2018-04-24T01:45:26.785Z,0
2018-04-24T01:45:52.932Z,0
2018-04-24T01:46:19.102Z,0
2018-04-24T01:46:45.239Z,0
2018-04-24T01:47:11.380Z,0
2018-04-24T01:47:37.518Z,0
2018-04-24T01:48:03.655Z,0
2018-04-24T01:48:29.793Z,0
2018-04-24T01:48:55.945Z,0
2018-04-24T01:49:22.082Z,0
2018-04-24T01:49:48.215Z,0
2018-04-24T01:50:14.412Z,0
2018-04-24T01:50:40.568Z,0
2018-04-24T01:51:06.711Z,0
2018-04-24T01:51:32.836Z,0
2018-04-24T01:51:58.982Z,0
2018-04-24T01:52:25.144Z,0
2018-04-24T01:52:51.287Z,0
2018-04-24T01:53:17.446Z,0
2018-04-24T01:53:43.587Z,0
2018-04-24T01:54:09.751Z,0
2018-04-24T01:54:35.889Z,0
2018-04-24T01:55:02.038Z,0
2018-04-24T01:55:28.172Z,0
2018-04-24T01:55:54.313Z,0
2018-04-24T01:56:20.473Z,0
2018-04-24T01:56:46.618Z,0
2018-04-24T01:57:12.766Z,0
2018-04-24T01:57:38.933Z,0
2018-04-24T01:58:05.092Z,0
2018-04-24T01:58:31.242Z,0
2018-04-24T01:58:57.411Z,0
2018-04-24T01:59:23.539Z,0
2018-04-24T01:59:49.683Z,0
2018-04-24T02:00:15.842Z,0
2018-04-24T02:00:41.981Z,0
2018-04-24T02:01:08.118Z,0
2018-04-24T02:01:34.259Z,0
2018-04-24T02:02:00.392Z,0
2018-04-24T02:02:26.529Z,0
2018-04-24T02:02:52.669Z,0
2018-04-24T02:03:18.812Z,0
2018-04-24T02:03:44.975Z,0
2018-04-24T02:04:11.143Z,0
2018-04-24T02:04:37.285Z,0
2018-04-24T02:05:03.421Z,0
2018-04-24T02:05:29.554Z,0
2018-04-24T02:05:55.720Z,0
2018-04-24T02:06:21.882Z,0
2018-04-24T02:06:48.017Z,0
2018-04-24T02:07:14.163Z,0
2018-04-24T02:07:40.326Z,0
2018-04-24T02:08:06.467Z,0
2018-04-24T02:08:32.631Z,0
2018-04-24T02:08:58.768Z,0
2018-04-24T02:09:24.907Z,0
2018-04-24T02:09:51.049Z,0
2018-04-24T02:10:17.180Z,0
2018-04-24T02:10:43.348Z,0
2018-04-24T02:11:09.491Z,0
2018-04-24T02:11:35.658Z,0
2018-04-24T02:12:01.798Z,0
2018-04-24T02:12:27.931Z,0
2018-04-24T02:12:54.066Z,0
2018-04-24T02:13:20.237Z,0
2018-04-24T02:13:46.369Z,0
2018-04-24T02:14:12.563Z,0
2018-04-24T02:14:38.705Z,0
2018-04-24T02:15:04.840Z,0
2018-04-24T02:15:31.004Z,0
2018-04-24T02:15:57.191Z,0
2018-04-24T02:16:23.334Z,0
2018-04-24T02:16:49.495Z,0
2018-04-24T02:17:15.685Z,0
2018-04-24T02:17:41.844Z,0
2018-04-24T02:18:07.988Z,0
2018-04-24T02:18:34.131Z,0
2018-04-24T02:19:00.271Z,0
2018-04-24T02:19:26.412Z,0
2018-04-24T02:19:52.598Z,0
2018-04-24T02:20:18.740Z,0
2018-04-24T02:20:44.879Z,0
2018-04-24T02:21:11.017Z,0
2018-04-24T02:21:37.195Z,0
2018-04-24T02:22:03.328Z,0
2018-04-24T02:22:29.488Z,0
2018-04-24T02:22:55.671Z,0
2018-04-24T02:23:21.812Z,0
2018-04-24T02:23:47.952Z,0
2018-04-24T02:24:14.113Z,0
2018-04-24T02:24:40.253Z,0
2018-04-24T02:25:06.390Z,0
2018-04-24T02:25:32.551Z,0
2018-04-24T02:25:58.726Z,0
2018-04-24T02:26:24.863Z,0
2018-04-24T02:26:51.002Z,0
2018-04-24T02:27:17.144Z,0
2018-04-24T02:27:43.282Z,0
2018-04-24T02:28:09.451Z,0
2018-04-24T02:28:35.589Z,0
2018-04-24T02:29:01.728Z,0
2018-04-24T02:29:27.863Z,0
2018-04-24T02:29:54.005Z,0
2018-04-24T02:30:20.151Z,0
2018-04-24T02:30:46.335Z,0
2018-04-24T02:31:12.475Z,0
2018-04-24T02:31:38.650Z,0
2018-04-24T02:32:04.791Z,0
2018-04-24T02:32:30.933Z,0
2018-04-24T02:32:57.099Z,0
2018-04-24T02:33:23.259Z,0
2018-04-24T02:33:49.423Z,0
2018-04-24T02:34:15.564Z,0
2018-04-24T02:34:41.699Z,0
2018-04-24T02:35:07.888Z,0
2018-04-24T02:35:34.042Z,0
2018-04-24T02:36:00.238Z,0
2018-04-24T02:36:26.395Z,0
2018-04-24T02:36:52.563Z,0
2018-04-24T02:37:18.715Z,0
2018-04-24T02:37:44.872Z,0
2018-04-24T02:38:11.019Z,0
2018-04-24T02:38:37.227Z,0
2018-04-24T02:39:03.412Z,0
2018-04-24T02:39:29.553Z,0
2018-04-24T02:39:55.691Z,0
2018-04-24T02:40:21.901Z,0
2018-04-24T02:40:47.990Z,0
2018-04-24T02:41:14.143Z,0
2018-04-24T02:41:40.272Z,0
2018-04-24T02:42:06.408Z,0
2018-04-24T02:42:32.584Z,0
2018-04-24T02:42:58.719Z,0
2018-04-24T02:43:24.908Z,0
2018-04-24T02:43:51.043Z,0
2018-04-24T02:44:17.229Z,0
2018-04-24T02:44:43.365Z,0
2018-04-24T02:45:09.523Z,0
2018-04-24T02:45:35.663Z,0
2018-04-24T02:46:01.825Z,0
2018-04-24T02:46:27.963Z,0
2018-04-24T02:46:54.108Z,0
2018-04-24T02:47:20.265Z,0
2018-04-24T02:47:46.432Z,0
2018-04-24T02:48:12.586Z,0
2018-04-24T02:48:38.747Z,0
2018-04-24T02:49:04.885Z,0
2018-04-24T02:49:31.037Z,0
2018-04-24T02:49:57.209Z,0
2018-04-24T02:50:23.368Z,0
2018-04-24T02:50:49.531Z,0
2018-04-24T02:51:15.701Z,0
2018-04-24T02:51:41.862Z,0
2018-04-24T02:52:08.021Z,0
2018-04-24T02:52:34.181Z,0
2018-04-24T02:53:00.321Z,0
2018-04-24T02:53:26.520Z,0
2018-04-24T02:53:52.713Z,0
2018-04-24T02:54:18.920Z,0
2018-04-24T02:54:45.057Z,0
2018-04-24T02:55:11.232Z,0
2018-04-24T02:55:37.457Z,0
2018-04-24T02:56:03.601Z,0
2018-04-24T02:56:29.742Z,0
2018-04-24T02:56:55.882Z,0
2018-04-24T02:57:22.018Z,0
2018-04-24T02:57:48.178Z,0
2018-04-24T02:58:14.319Z,0
2018-04-24T02:58:40.459Z,0
2018-04-24T02:59:06.601Z,0
2018-04-24T02:59:32.756Z,0
2018-04-24T02:59:58.920Z,0
2018-04-24T03:00:25.092Z,0
2018-04-24T03:00:51.260Z,0
2018-04-24T03:01:17.432Z,0
2018-04-24T03:01:43.569Z,0
2018-04-24T03:02:09.702Z,0
2018-04-24T03:02:35.896Z,0
2018-04-24T03:03:02.064Z,0
2018-04-24T03:03:28.227Z,0
2018-04-24T03:03:54.387Z,0
2018-04-24T03:04:20.555Z,0
2018-04-24T03:04:46.718Z,0
2018-04-24T03:05:12.851Z,0
2018-04-24T03:05:39.018Z,0
2018-04-24T03:06:05.155Z,0
2018-04-24T03:06:31.325Z,0
2018-04-24T03:06:57.461Z,0
2018-04-24T03:07:23.645Z,0
2018-04-24T03:07:49.835Z,0
2018-04-24T03:08:15.977Z,0
2018-04-24T03:08:42.138Z,0
2018-04-24T03:09:08.289Z,0
2018-04-24T03:09:34.491Z,0
2018-04-24T03:10:00.631Z,0
2018-04-24T03:10:26.772Z,0
2018-04-24T03:10:52.934Z,0
2018-04-24T03:11:19.073Z,0
2018-04-24T03:11:45.237Z,0
2018-04-24T03:12:11.408Z,0
2018-04-24T03:12:37.568Z,0
2018-04-24T03:13:03.704Z,0
2018-04-24T03:13:29.872Z,0
2018-04-24T03:13:56.077Z,0
2018-04-24T03:14:22.231Z,0
2018-04-24T03:14:48.422Z,0
2018-04-24T03:15:14.567Z,0
2018-04-24T03:15:40.729Z,0
2018-04-24T03:16:06.887Z,0
2018-04-24T03:16:33.027Z,0
2018-04-24T03:16:59.171Z,0
2018-04-24T03:17:25.305Z,0
2018-04-24T03:17:51.441Z,0
2018-04-24T03:18:17.581Z,0
2018-04-24T03:18:43.721Z,0
2018-04-24T03:19:09.857Z,0
2018-04-24T03:19:36.020Z,0
2018-04-24T03:20:02.179Z,0
2018-04-24T03:20:28.322Z,0
2018-04-24T03:20:54.460Z,0
2018-04-24T03:21:20.621Z,0
2018-04-24T03:21:46.760Z,0
2018-04-24T03:22:12.894Z,0
2018-04-24T03:22:39.036Z,0
2018-04-24T03:23:05.173Z,0
2018-04-24T03:23:31.316Z,0
2018-04-24T03:23:57.459Z,0
2018-04-24T03:24:23.617Z,0
2018-04-24T03:24:49.753Z,0
2018-04-24T03:25:15.903Z,0
2018-04-24T03:25:42.033Z,0
2018-04-24T03:26:08.172Z,0
2018-04-24T03:26:34.311Z,0
2018-04-24T03:27:00.448Z,0
2018-04-24T03:27:26.612Z,0
2018-04-24T03:27:52.753Z,0
2018-04-24T03:28:18.913Z,0
2018-04-24T03:28:45.071Z,0
2018-04-24T03:29:11.240Z,0
2018-04-24T03:29:37.379Z,0
2018-04-24T03:30:03.515Z,0
2018-04-24T03:30:29.673Z,0
2018-04-24T03:30:55.822Z,0
2018-04-24T03:31:22.013Z,0
2018-04-24T03:31:48.183Z,0
2018-04-24T03:32:14.317Z,0
2018-04-24T03:32:40.478Z,0
2018-04-24T03:33:06.621Z,0
2018-04-24T03:33:32.779Z,0
2018-04-24T03:33:58.924Z,0
2018-04-24T03:34:25.057Z,0
2018-04-24T03:34:51.197Z,0
2018-04-24T03:35:17.355Z,0
2018-04-24T03:35:43.493Z,0
2018-04-24T03:36:09.631Z,0
2018-04-24T03:36:35.772Z,0
2018-04-24T03:37:01.908Z,0
2018-04-24T03:37:28.083Z,0
2018-04-24T03:37:54.210Z,4
2018-04-24T03:38:20.356Z,4
2018-04-24T03:38:46.544Z,4
2018-04-24T03:39:12.681Z,4
2018-04-24T03:39:38.817Z,4
2018-04-24T03:40:04.982Z,4
2018-04-24T03:40:31.151Z,4
2018-04-24T03:40:57.275Z,0
2018-04-24T03:41:23.412Z,4
2018-04-24T03:41:49.558Z,4
2018-04-24T03:42:15.692Z,4
2018-04-24T03:42:41.835Z,4
2018-04-24T03:43:07.978Z,4
2018-04-24T03:43:34.118Z,8
2018-04-24T03:44:00.253Z,4
2018-04-24T03:44:26.412Z,4
2018-04-24T03:44:52.550Z,4
2018-04-24T03:45:18.687Z,8
2018-04-24T03:45:44.823Z,8
2018-04-24T03:46:10.961Z,4
2018-04-24T03:46:37.099Z,8
2018-04-24T03:47:03.255Z,8
2018-04-24T03:47:29.417Z,12
2018-04-24T03:47:55.558Z,8
2018-04-24T03:48:21.701Z,12
2018-04-24T03:48:47.837Z,8
2018-04-24T03:49:14.001Z,12
2018-04-24T03:49:40.137Z,16
2018-04-24T03:50:06.303Z,12
2018-04-24T03:50:32.466Z,16
2018-04-24T03:50:58.607Z,16
2018-04-24T03:51:24.748Z,16
2018-04-24T03:51:50.889Z,20
2018-04-24T03:52:17.025Z,20
2018-04-24T03:52:43.160Z,24
2018-04-24T03:53:09.305Z,24
2018-04-24T03:53:35.446Z,24
2018-04-24T03:54:01.605Z,24
2018-04-24T03:54:27.751Z,28
2018-04-24T03:54:53.891Z,28
2018-04-24T03:55:20.030Z,28
2018-04-24T03:55:46.163Z,32
2018-04-24T03:56:12.312Z,32
2018-04-24T03:56:38.445Z,32
2018-04-24T03:57:04.583Z,36
2018-04-24T03:57:30.746Z,36
2018-04-24T03:57:56.887Z,40
2018-04-24T03:58:23.064Z,44
2018-04-24T03:58:49.221Z,44
2018-04-24T03:59:15.363Z,48
2018-04-24T03:59:41.501Z,52
2018-04-24T04:00:07.634Z,56
2018-04-24T04:00:33.781Z,56
2018-04-24T04:00:59.919Z,64
2018-04-24T04:01:26.054Z,68
2018-04-24T04:01:52.194Z,68
2018-04-24T04:02:18.336Z,76
2018-04-24T04:02:44.471Z,76
2018-04-24T04:03:10.612Z,84
2018-04-24T04:03:36.743Z,88
2018-04-24T04:04:02.952Z,88
2018-04-24T04:04:29.046Z,96
2018-04-24T04:04:55.202Z,100
2018-04-24T04:05:21.340Z,104
2018-04-24T04:05:47.477Z,108
2018-04-24T04:06:13.616Z,116
2018-04-24T04:06:39.780Z,120
2018-04-24T04:07:05.948Z,124
2018-04-24T04:07:32.195Z,128
2018-04-24T04:07:58.281Z,136
2018-04-24T04:08:24.420Z,144
2018-04-24T04:08:50.624Z,148
2018-04-24T04:09:16.724Z,156
2018-04-24T04:09:42.865Z,164
2018-04-24T04:10:09.038Z,168
2018-04-24T04:10:35.173Z,180
2018-04-24T04:11:01.319Z,184
2018-04-24T04:11:27.460Z,192
2018-04-24T04:11:53.599Z,200
2018-04-24T04:12:19.763Z,208
2018-04-24T04:12:45.924Z,216
2018-04-24T04:13:12.083Z,216
2018-04-24T04:13:38.225Z,224
2018-04-24T04:14:04.360Z,232
2018-04-24T04:14:30.532Z,244
2018-04-24T04:14:56.673Z,252
2018-04-24T04:15:22.807Z,260
2018-04-24T04:15:48.995Z,272
2018-04-24T04:16:15.119Z,280
2018-04-24T04:16:41.259Z,292
2018-04-24T04:17:07.384Z,300
2018-04-24T04:17:33.524Z,312
2018-04-24T04:17:59.658Z,324
2018-04-24T04:18:25.799Z,332
2018-04-24T04:18:51.959Z,340
2018-04-24T04:19:18.102Z,348
2018-04-24T04:19:44.239Z,352
2018-04-24T04:20:10.381Z,360
2018-04-24T04:20:36.515Z,364
2018-04-24T04:21:02.660Z,376
2018-04-24T04:21:28.799Z,380
2018-04-24T04:21:54.936Z,392
2018-04-24T04:22:21.077Z,400
2018-04-24T04:22:47.228Z,404
2018-04-24T04:23:13.371Z,412
2018-04-24T04:23:39.508Z,420
2018-04-24T04:24:05.639Z,432
2018-04-24T04:24:31.779Z,436
2018-04-24T04:24:57.921Z,444
2018-04-24T04:25:24.056Z,456
2018-04-24T04:25:50.189Z,464
2018-04-24T04:26:16.336Z,472
2018-04-24T04:26:42.474Z,472
2018-04-24T04:27:08.616Z,476
2018-04-24T04:27:34.751Z,484
2018-04-24T04:28:00.897Z,488
2018-04-24T04:28:27.039Z,496
2018-04-24T04:28:53.177Z,508
2018-04-24T04:29:19.320Z,520
2018-04-24T04:29:45.474Z,540
2018-04-24T04:30:11.620Z,556
2018-04-24T04:30:37.758Z,560
2018-04-24T04:31:03.895Z,568
2018-04-24T04:31:30.057Z,572
2018-04-24T04:31:56.194Z,588
2018-04-24T04:32:22.354Z,596
2018-04-24T04:32:48.587Z,600
2018-04-24T04:33:14.659Z,608
2018-04-24T04:33:40.798Z,628
2018-04-24T04:34:06.972Z,652
2018-04-24T04:34:33.103Z,692
2018-04-24T04:34:59.240Z,732
2018-04-24T04:35:25.375Z,772
2018-04-24T04:35:51.515Z,796
2018-04-24T04:36:17.661Z,816
2018-04-24T04:36:43.815Z,840
2018-04-24T04:37:09.949Z,860
2018-04-24T04:37:36.094Z,892
2018-04-24T04:38:02.230Z,908
2018-04-24T04:38:28.380Z,920
2018-04-24T04:38:54.510Z,924
2018-04-24T04:39:20.652Z,908
2018-04-24T04:39:46.785Z,888
2018-04-24T04:40:12.922Z,872
2018-04-24T04:40:39.056Z,868
2018-04-24T04:41:05.198Z,864
2018-04-24T04:41:31.439Z,860
2018-04-24T04:41:57.502Z,864
2018-04-24T04:42:23.649Z,876
2018-04-24T04:42:49.793Z,904
2018-04-24T04:43:16.005Z,940
2018-04-24T04:43:42.149Z,988
2018-04-24T04:44:08.291Z,1040
2018-04-24T04:44:34.449Z,1088
2018-04-24T04:45:00.574Z,1128
2018-04-24T04:45:26.724Z,1172
2018-04-24T04:45:52.883Z,1244
2018-04-24T04:46:19.033Z,1324
2018-04-24T04:46:45.161Z,1388
2018-04-24T04:47:11.308Z,1420
2018-04-24T04:47:37.455Z,1428
2018-04-24T04:48:03.593Z,1448
2018-04-24T04:48:29.736Z,1480
2018-04-24T04:48:55.896Z,1496
2018-04-24T04:49:22.035Z,1480
2018-04-24T04:49:48.201Z,1420
2018-04-24T04:50:14.343Z,1328
2018-04-24T04:50:40.477Z,1268
2018-04-24T04:51:06.621Z,1212
2018-04-24T04:51:32.760Z,1176
2018-04-24T04:51:58.904Z,1160
2018-04-24T04:52:25.040Z,1152
2018-04-24T04:52:51.183Z,1148
2018-04-24T04:53:17.381Z,1144
2018-04-24T04:53:43.523Z,1140
2018-04-24T04:54:09.686Z,1144
2018-04-24T04:54:35.831Z,1152
2018-04-24T04:55:01.958Z,1172
2018-04-24T04:55:28.131Z,1196
2018-04-24T04:55:54.265Z,1216
2018-04-24T04:56:20.407Z,1240
2018-04-24T04:56:46.552Z,1264
2018-04-24T04:57:12.689Z,1296
2018-04-24T04:57:38.824Z,1344
2018-04-24T04:58:04.960Z,1388
2018-04-24T04:58:31.101Z,1428
2018-04-24T04:58:57.244Z,1468
2018-04-24T04:59:23.379Z,1516
2018-04-24T04:59:49.522Z,1576
2018-04-24T05:00:15.663Z,1648
2018-04-24T05:00:41.805Z,1716
2018-04-24T05:01:07.962Z,1768
2018-04-24T05:01:34.125Z,1816
2018-04-24T05:02:00.267Z,1880
2018-04-24T05:02:26.398Z,1928
2018-04-24T05:02:52.545Z,1956
2018-04-24T05:03:18.729Z,1964
2018-04-24T05:03:44.868Z,1964
2018-04-24T05:04:11.012Z,1960
2018-04-24T05:04:37.146Z,1940
2018-04-24T05:05:03.306Z,1900
2018-04-24T05:05:29.441Z,1848
2018-04-24T05:05:55.577Z,1800
2018-04-24T05:06:21.765Z,1772
2018-04-24T05:06:47.925Z,1760
2018-04-24T05:07:14.065Z,1756
2018-04-24T05:07:40.205Z,1756
2018-04-24T05:08:06.368Z,1764
2018-04-24T05:08:32.509Z,1772
2018-04-24T05:08:58.667Z,1764
2018-04-24T05:09:24.813Z,1740
2018-04-24T05:09:50.949Z,1716
2018-04-24T05:10:17.092Z,1708
2018-04-24T05:10:43.228Z,1704
2018-04-24T05:11:09.392Z,1700
2018-04-24T05:11:35.524Z,1700
2018-04-24T05:12:01.769Z,1716
2018-04-24T05:12:27.842Z,1724
2018-04-24T05:12:53.982Z,1736
2018-04-24T05:13:20.123Z,1744
2018-04-24T05:13:46.261Z,1744
2018-04-24T05:14:12.407Z,1744
2018-04-24T05:14:38.552Z,1736
2018-04-24T05:15:04.716Z,1736
2018-04-24T05:15:30.855Z,1744
2018-04-24T05:15:56.999Z,1780
2018-04-24T05:16:23.156Z,1832
2018-04-24T05:16:49.302Z,1884
2018-04-24T05:17:15.467Z,1932
2018-04-24T05:17:41.599Z,1964
2018-04-24T05:18:07.735Z,1988
2018-04-24T05:18:33.896Z,2012
2018-04-24T05:19:00.040Z,2048
2018-04-24T05:19:26.177Z,2096
2018-04-24T05:19:52.316Z,2160
2018-04-24T05:20:18.453Z,2236
2018-04-24T05:20:44.616Z,2280
2018-04-24T05:21:10.753Z,2304
2018-04-24T05:21:36.894Z,2312
2018-04-24T05:22:03.036Z,2312
2018-04-24T05:22:29.171Z,2300
2018-04-24T05:22:55.335Z,2300
2018-04-24T05:23:21.479Z,2300
2018-04-24T05:23:47.616Z,2292
2018-04-24T05:24:13.799Z,2272
2018-04-24T05:24:39.941Z,2236
2018-04-24T05:25:06.085Z,2176
2018-04-24T05:25:32.219Z,2124
2018-04-24T05:25:58.346Z,2080
2018-04-24T05:26:24.492Z,2068
2018-04-24T05:26:50.644Z,2096
2018-04-24T05:27:16.830Z,2144
2018-04-24T05:27:42.973Z,2212
2018-04-24T05:28:09.137Z,2292
2018-04-24T05:28:35.304Z,2364
2018-04-24T05:29:01.452Z,2428
2018-04-24T05:29:27.584Z,2464
2018-04-24T05:29:53.730Z,2508
2018-04-24T05:30:19.864Z,2572
2018-04-24T05:30:46.005Z,2656
2018-04-24T05:31:12.149Z,2724
2018-04-24T05:31:38.312Z,2764
2018-04-24T05:32:04.470Z,2744
2018-04-24T05:32:30.605Z,2696
2018-04-24T05:32:56.737Z,2632
2018-04-24T05:33:22.908Z,2568
2018-04-24T05:33:49.041Z,2504
2018-04-24T05:34:15.182Z,2452
2018-04-24T05:34:41.330Z,2388
2018-04-24T05:35:07.459Z,2316
2018-04-24T05:35:33.598Z,2240
2018-04-24T05:35:59.782Z,2196
2018-04-24T05:36:25.922Z,2172
2018-04-24T05:36:52.074Z,2172
2018-04-24T05:37:18.218Z,2196
2018-04-24T05:37:44.357Z,2224
2018-04-24T05:38:10.499Z,2252
2018-04-24T05:38:36.643Z,2256
2018-04-24T05:39:02.803Z,2264
2018-04-24T05:39:28.951Z,2276
2018-04-24T05:39:55.097Z,2252
2018-04-24T05:40:21.229Z,2256
2018-04-24T05:40:47.373Z,2344
2018-04-24T05:41:13.517Z,2428
2018-04-24T05:41:39.654Z,2516
2018-04-24T05:42:05.793Z,2604
2018-04-24T05:42:31.934Z,2696
2018-04-24T05:42:58.097Z,2780
2018-04-24T05:43:24.262Z,2836
2018-04-24T05:43:50.421Z,2860
2018-04-24T05:44:16.611Z,2888
2018-04-24T05:44:42.750Z,2900
2018-04-24T05:45:08.895Z,2932
2018-04-24T05:45:35.059Z,2996
2018-04-24T05:46:01.196Z,3104
2018-04-24T05:46:27.331Z,3220
2018-04-24T05:46:53.472Z,3312
2018-04-24T05:47:19.638Z,3352
2018-04-24T05:47:45.782Z,3364
2018-04-24T05:48:11.922Z,3408
2018-04-24T05:48:38.053Z,3464
2018-04-24T05:49:04.194Z,3508
2018-04-24T05:49:30.328Z,3568
2018-04-24T05:49:56.473Z,3636
2018-04-24T05:50:22.609Z,3748
2018-04-24T05:50:48.778Z,3896
2018-04-24T05:51:14.917Z,4052
2018-04-24T05:51:41.128Z,4180
2018-04-24T05:52:07.195Z,4256
2018-04-24T05:52:33.384Z,4284
2018-04-24T05:52:59.529Z,4260
2018-04-24T05:53:25.657Z,4396
2018-04-24T05:53:51.817Z,4356
2018-04-24T05:54:17.986Z,4312
2018-04-24T05:54:44.123Z,4368
2018-04-24T05:55:10.289Z,4348
2018-04-24T05:55:36.423Z,4464
2018-04-24T05:56:02.573Z,4508
2018-04-24T05:56:28.719Z,4672
2018-04-24T05:56:54.885Z,4856
2018-04-24T05:57:21.034Z,4964
2018-04-24T05:57:47.231Z,5040
2018-04-24T05:58:13.363Z,5100
2018-04-24T05:58:39.565Z,5024
2018-04-24T05:59:05.721Z,4916
2018-04-24T05:59:31.866Z,4932
2018-04-24T05:59:57.996Z,4856
2018-04-24T06:00:24.134Z,4776
2018-04-24T06:00:50.273Z,4712
2018-04-24T06:01:16.417Z,4796
2018-04-24T06:01:42.550Z,4976
2018-04-24T06:02:08.717Z,5052
2018-04-24T06:02:34.893Z,5236
2018-04-24T06:03:01.119Z,5432
2018-04-24T06:03:27.208Z,5520
2018-04-24T06:03:53.349Z,5520
2018-04-24T06:04:19.501Z,5532
2018-04-24T06:04:45.655Z,5520
2018-04-24T06:05:11.800Z,5420
2018-04-24T06:05:37.928Z,5316
2018-04-24T06:06:04.063Z,5268
2018-04-24T06:06:30.204Z,5304
2018-04-24T06:06:56.340Z,5364
2018-04-24T06:07:22.485Z,5164
2018-04-24T06:07:48.615Z,4880
2018-04-24T06:08:14.763Z,4712
2018-04-24T06:08:40.988Z,4716
2018-04-24T06:09:07.058Z,4748
2018-04-24T06:09:33.215Z,4716
2018-04-24T06:09:59.350Z,4632
2018-04-24T06:10:25.492Z,4584
2018-04-24T06:10:51.629Z,4556
2018-04-24T06:11:17.769Z,4548
2018-04-24T06:11:43.908Z,4568
2018-04-24T06:12:10.066Z,4544
2018-04-24T06:12:36.205Z,4536
2018-04-24T06:13:02.373Z,4492
2018-04-24T06:13:28.538Z,4452